sensor_id;sensor_type;location;lat;lon;timestamp;P1;durP1;ratioP1;P2;durP2;ratioP2
29730;SDS011;16639;51.488;0.152;2023-08-30T00:00:39;8.50;;;4.53;;
29730;SDS011;16639;51.488;0.152;2023-08-30T00:03:07;10.63;;;4.60;;
29730;SDS011;16639;51.488;0.152;2023-08-30T00:05:38;8.07;;;4.57;;
29730;SDS011;16639;51.488;0.152;2023-08-30T00:08:06;6.25;;;3.90;;
29730;SDS011;16639;51.488;0.152;2023-08-30T00:10:34;8.05;;;3.85;;
29730;SDS011;16639;51.488;0.152;2023-08-30T00:13:02;7.07;;;4.35;;
29730;SDS011;16639;51.488;0.152;2023-08-30T00:15:29;9.13;;;4.53;;
29730;SDS011;16639;51.488;0.152;2023-08-30T00:17:57;7.30;;;4.57;;
29730;SDS011;16639;51.488;0.152;2023-08-30T00:20:24;6.00;;;3.80;;
29730;SDS011;16639;51.488;0.152;2023-08-30T00:22:52;8.40;;;3.90;;
29730;SDS011;16639;51.488;0.152;2023-08-30T00:25:19;5.57;;;3.97;;
29730;SDS011;16639;51.488;0.152;2023-08-30T00:27:50;8.50;;;4.00;;
29730;SDS011;16639;51.488;0.152;2023-08-30T00:30:18;4.63;;;3.45;;
29730;SDS011;16639;51.488;0.152;2023-08-30T00:32:45;7.35;;;3.83;;
29730;SDS011;16639;51.488;0.152;2023-08-30T00:35:13;6.50;;;3.90;;
29730;SDS011;16639;51.488;0.152;2023-08-30T00:37:46;8.48;;;3.95;;
29730;SDS011;16639;51.488;0.152;2023-08-30T00:40:17;6.05;;;3.78;;
29730;SDS011;16639;51.488;0.152;2023-08-30T00:42:50;8.10;;;3.10;;
29730;SDS011;16639;51.488;0.152;2023-08-30T00:45:17;5.82;;;3.65;;
29730;SDS011;16639;51.488;0.152;2023-08-30T00:47:47;7.90;;;3.78;;
29730;SDS011;16639;51.488;0.152;2023-08-30T00:50:15;6.85;;;4.07;;
29730;SDS011;16639;51.488;0.152;2023-08-30T00:52:43;5.32;;;2.92;;
29730;SDS011;16639;51.488;0.152;2023-08-30T00:55:11;8.00;;;3.28;;
29730;SDS011;16639;51.488;0.152;2023-08-30T00:57:38;10.10;;;3.63;;
29730;SDS011;16639;51.488;0.152;2023-08-30T01:00:06;7.47;;;3.75;;
29730;SDS011;16639;51.488;0.152;2023-08-30T01:02:35;7.38;;;2.97;;
29730;SDS011;16639;51.488;0.152;2023-08-30T01:05:03;7.13;;;3.15;;
29730;SDS011;16639;51.488;0.152;2023-08-30T01:07:31;5.90;;;3.17;;
29730;SDS011;16639;51.488;0.152;2023-08-30T01:09:58;5.57;;;3.58;;
29730;SDS011;16639;51.488;0.152;2023-08-30T01:12:30;7.88;;;3.50;;
29730;SDS011;16639;51.488;0.152;2023-08-30T01:15:11;6.25;;;3.30;;
29730;SDS011;16639;51.488;0.152;2023-08-30T01:17:42;6.78;;;3.78;;
29730;SDS011;16639;51.488;0.152;2023-08-30T01:20:11;14.68;;;3.90;;
29730;SDS011;16639;51.488;0.152;2023-08-30T01:27:53;9.63;;;3.40;;
29730;SDS011;16639;51.488;0.152;2023-08-30T01:30:24;7.55;;;3.13;;
29730;SDS011;16639;51.488;0.152;2023-08-30T01:32:54;8.75;;;2.95;;
29730;SDS011;16639;51.488;0.152;2023-08-30T01:35:23;6.20;;;4.03;;
29730;SDS011;16639;51.488;0.152;2023-08-30T01:37:51;7.50;;;4.55;;
29730;SDS011;16639;51.488;0.152;2023-08-30T01:40:19;7.50;;;3.85;;
29730;SDS011;16639;51.488;0.152;2023-08-30T01:42:47;10.93;;;3.83;;
29730;SDS011;16639;51.488;0.152;2023-08-30T01:45:15;7.50;;;3.10;;
29730;SDS011;16639;51.488;0.152;2023-08-30T01:47:44;7.40;;;2.80;;
29730;SDS011;16639;51.488;0.152;2023-08-30T01:50:12;5.25;;;3.08;;
29730;SDS011;16639;51.488;0.152;2023-08-30T01:52:42;7.80;;;2.97;;
29730;SDS011;16639;51.488;0.152;2023-08-30T01:55:10;8.27;;;3.38;;
29730;SDS011;16639;51.488;0.152;2023-08-30T01:57:40;3.60;;;3.05;;
29730;SDS011;16639;51.488;0.152;2023-08-30T02:00:08;10.25;;;3.28;;
29730;SDS011;16639;51.488;0.152;2023-08-30T02:02:36;6.18;;;3.28;;
29730;SDS011;16639;51.488;0.152;2023-08-30T02:05:03;9.30;;;3.38;;
29730;SDS011;16639;51.488;0.152;2023-08-30T02:10:27;9.13;;;3.88;;
29730;SDS011;16639;51.488;0.152;2023-08-30T02:12:58;9.70;;;4.28;;
29730;SDS011;16639;51.488;0.152;2023-08-30T02:15:27;5.20;;;4.00;;
29730;SDS011;16639;51.488;0.152;2023-08-30T02:17:56;7.95;;;3.78;;
29730;SDS011;16639;51.488;0.152;2023-08-30T02:20:24;7.68;;;3.72;;
29730;SDS011;16639;51.488;0.152;2023-08-30T02:22:51;10.50;;;4.05;;
29730;SDS011;16639;51.488;0.152;2023-08-30T02:25:19;7.10;;;3.47;;
29730;SDS011;16639;51.488;0.152;2023-08-30T02:27:51;8.32;;;3.65;;
29730;SDS011;16639;51.488;0.152;2023-08-30T02:30:18;10.82;;;3.65;;
29730;SDS011;16639;51.488;0.152;2023-08-30T02:32:46;9.57;;;3.75;;
29730;SDS011;16639;51.488;0.152;2023-08-30T02:35:13;11.75;;;4.57;;
29730;SDS011;16639;51.488;0.152;2023-08-30T02:37:41;9.23;;;3.80;;
29730;SDS011;16639;51.488;0.152;2023-08-30T02:40:10;10.13;;;4.57;;
29730;SDS011;16639;51.488;0.152;2023-08-30T02:42:37;14.07;;;4.28;;
29730;SDS011;16639;51.488;0.152;2023-08-30T02:45:05;10.00;;;4.10;;
29730;SDS011;16639;51.488;0.152;2023-08-30T02:47:33;13.27;;;3.80;;
29730;SDS011;16639;51.488;0.152;2023-08-30T02:50:00;12.80;;;4.43;;
29730;SDS011;16639;51.488;0.152;2023-08-30T02:52:28;6.45;;;4.43;;
29730;SDS011;16639;51.488;0.152;2023-08-30T02:54:55;11.13;;;4.05;;
29730;SDS011;16639;51.488;0.152;2023-08-30T02:57:22;10.52;;;4.32;;
29730;SDS011;16639;51.488;0.152;2023-08-30T02:59:50;7.07;;;3.67;;
29730;SDS011;16639;51.488;0.152;2023-08-30T03:02:17;19.00;;;4.68;;
29730;SDS011;16639;51.488;0.152;2023-08-30T03:04:44;14.82;;;4.30;;
29730;SDS011;16639;51.488;0.152;2023-08-30T03:07:12;10.27;;;4.30;;
29730;SDS011;16639;51.488;0.152;2023-08-30T03:09:39;9.23;;;4.00;;
29730;SDS011;16639;51.488;0.152;2023-08-30T03:12:07;12.63;;;4.30;;
29730;SDS011;16639;51.488;0.152;2023-08-30T03:14:34;13.15;;;3.97;;
29730;SDS011;16639;51.488;0.152;2023-08-30T03:17:02;12.80;;;5.05;;
29730;SDS011;16639;51.488;0.152;2023-08-30T03:19:29;23.80;;;4.82;;
29730;SDS011;16639;51.488;0.152;2023-08-30T03:21:56;11.68;;;4.32;;
29730;SDS011;16639;51.488;0.152;2023-08-30T03:24:24;12.73;;;4.50;;
29730;SDS011;16639;51.488;0.152;2023-08-30T03:26:51;13.15;;;3.92;;
29730;SDS011;16639;51.488;0.152;2023-08-30T03:29:18;12.00;;;3.65;;
29730;SDS011;16639;51.488;0.152;2023-08-30T03:31:46;15.20;;;4.45;;
29730;SDS011;16639;51.488;0.152;2023-08-30T03:34:14;10.90;;;4.22;;
29730;SDS011;16639;51.488;0.152;2023-08-30T03:36:42;11.07;;;4.57;;
29730;SDS011;16639;51.488;0.152;2023-08-30T03:39:10;12.30;;;3.97;;
29730;SDS011;16639;51.488;0.152;2023-08-30T03:41:39;9.60;;;3.80;;
29730;SDS011;16639;51.488;0.152;2023-08-30T03:44:06;17.05;;;3.97;;
29730;SDS011;16639;51.488;0.152;2023-08-30T03:46:34;11.18;;;4.43;;
29730;SDS011;16639;51.488;0.152;2023-08-30T03:49:01;7.32;;;3.97;;
29730;SDS011;16639;51.488;0.152;2023-08-30T03:51:30;7.13;;;3.55;;
29730;SDS011;16639;51.488;0.152;2023-08-30T03:53:57;15.15;;;4.15;;
29730;SDS011;16639;51.488;0.152;2023-08-30T03:56:25;20.33;;;4.43;;
29730;SDS011;16639;51.488;0.152;2023-08-30T03:58:52;15.93;;;3.85;;
29730;SDS011;16639;51.488;0.152;2023-08-30T04:01:19;13.50;;;4.18;;
29730;SDS011;16639;51.488;0.152;2023-08-30T04:03:47;9.02;;;3.97;;
29730;SDS011;16639;51.488;0.152;2023-08-30T04:06:14;15.52;;;4.32;;
29730;SDS011;16639;51.488;0.152;2023-08-30T04:08:42;13.43;;;3.97;;
29730;SDS011;16639;51.488;0.152;2023-08-30T04:11:09;11.27;;;4.32;;
29730;SDS011;16639;51.488;0.152;2023-08-30T04:13:38;16.00;;;3.70;;
29730;SDS011;16639;51.488;0.152;2023-08-30T04:16:05;13.55;;;4.55;;
29730;SDS011;16639;51.488;0.152;2023-08-30T04:18:32;16.80;;;3.65;;
29730;SDS011;16639;51.488;0.152;2023-08-30T04:21:00;10.40;;;4.10;;
29730;SDS011;16639;51.488;0.152;2023-08-30T04:23:29;11.65;;;4.38;;
29730;SDS011;16639;51.488;0.152;2023-08-30T04:25:56;8.55;;;3.53;;
29730;SDS011;16639;51.488;0.152;2023-08-30T04:28:24;13.55;;;3.63;;
29730;SDS011;16639;51.488;0.152;2023-08-30T04:30:54;12.75;;;4.22;;
29730;SDS011;16639;51.488;0.152;2023-08-30T04:33:22;9.52;;;3.72;;
29730;SDS011;16639;51.488;0.152;2023-08-30T04:35:53;9.13;;;3.75;;
29730;SDS011;16639;51.488;0.152;2023-08-30T04:38:21;6.03;;;3.30;;
29730;SDS011;16639;51.488;0.152;2023-08-30T04:40:49;7.70;;;3.03;;
29730;SDS011;16639;51.488;0.152;2023-08-30T04:43:16;15.18;;;3.53;;
29730;SDS011;16639;51.488;0.152;2023-08-30T04:45:46;6.47;;;3.70;;
29730;SDS011;16639;51.488;0.152;2023-08-30T04:48:14;12.70;;;3.83;;
29730;SDS011;16639;51.488;0.152;2023-08-30T04:50:42;13.73;;;3.45;;
29730;SDS011;16639;51.488;0.152;2023-08-30T04:53:09;11.65;;;4.18;;
29730;SDS011;16639;51.488;0.152;2023-08-30T04:55:36;8.40;;;4.07;;
29730;SDS011;16639;51.488;0.152;2023-08-30T04:58:04;14.55;;;3.50;;
29730;SDS011;16639;51.488;0.152;2023-08-30T05:00:31;11.85;;;3.92;;
29730;SDS011;16639;51.488;0.152;2023-08-30T05:02:59;14.85;;;4.18;;
29730;SDS011;16639;51.488;0.152;2023-08-30T05:05:26;12.73;;;4.32;;
29730;SDS011;16639;51.488;0.152;2023-08-30T05:07:53;13.82;;;3.90;;
29730;SDS011;16639;51.488;0.152;2023-08-30T05:10:21;18.98;;;3.88;;
29730;SDS011;16639;51.488;0.152;2023-08-30T05:12:48;10.65;;;3.25;;
29730;SDS011;16639;51.488;0.152;2023-08-30T05:15:19;19.17;;;3.50;;
29730;SDS011;16639;51.488;0.152;2023-08-30T05:17:46;10.30;;;3.33;;
29730;SDS011;16639;51.488;0.152;2023-08-30T05:20:14;8.32;;;3.92;;
29730;SDS011;16639;51.488;0.152;2023-08-30T05:22:41;13.05;;;4.63;;
29730;SDS011;16639;51.488;0.152;2023-08-30T05:25:08;7.88;;;3.85;;
29730;SDS011;16639;51.488;0.152;2023-08-30T05:27:36;14.30;;;3.60;;
29730;SDS011;16639;51.488;0.152;2023-08-30T05:30:03;12.18;;;3.38;;
29730;SDS011;16639;51.488;0.152;2023-08-30T05:32:31;5.78;;;3.20;;
29730;SDS011;16639;51.488;0.152;2023-08-30T05:34:59;14.48;;;4.15;;
29730;SDS011;16639;51.488;0.152;2023-08-30T05:37:26;11.55;;;3.35;;
29730;SDS011;16639;51.488;0.152;2023-08-30T05:39:53;7.78;;;3.20;;
29730;SDS011;16639;51.488;0.152;2023-08-30T05:42:21;13.52;;;4.07;;
29730;SDS011;16639;51.488;0.152;2023-08-30T05:44:48;9.07;;;3.25;;
29730;SDS011;16639;51.488;0.152;2023-08-30T05:47:16;8.60;;;3.22;;
29730;SDS011;16639;51.488;0.152;2023-08-30T05:49:45;10.05;;;3.30;;
29730;SDS011;16639;51.488;0.152;2023-08-30T05:52:14;9.50;;;3.45;;
29730;SDS011;16639;51.488;0.152;2023-08-30T05:54:43;12.90;;;3.58;;
29730;SDS011;16639;51.488;0.152;2023-08-30T05:57:11;11.13;;;4.20;;
29730;SDS011;16639;51.488;0.152;2023-08-30T05:59:38;13.68;;;3.67;;
29730;SDS011;16639;51.488;0.152;2023-08-30T06:02:05;11.00;;;3.85;;
29730;SDS011;16639;51.488;0.152;2023-08-30T06:04:33;8.65;;;3.35;;
29730;SDS011;16639;51.488;0.152;2023-08-30T06:07:00;9.45;;;3.10;;
29730;SDS011;16639;51.488;0.152;2023-08-30T06:09:28;14.93;;;4.20;;
29730;SDS011;16639;51.488;0.152;2023-08-30T06:11:55;11.68;;;3.20;;
29730;SDS011;16639;51.488;0.152;2023-08-30T06:14:23;17.58;;;3.30;;
29730;SDS011;16639;51.488;0.152;2023-08-30T06:16:50;13.52;;;3.47;;
29730;SDS011;16639;51.488;0.152;2023-08-30T06:19:17;9.07;;;2.80;;
29730;SDS011;16639;51.488;0.152;2023-08-30T06:21:45;13.55;;;3.33;;
29730;SDS011;16639;51.488;0.152;2023-08-30T06:24:12;11.32;;;3.58;;
29730;SDS011;16639;51.488;0.152;2023-08-30T06:26:39;8.30;;;3.38;;
29730;SDS011;16639;51.488;0.152;2023-08-30T06:29:07;7.97;;;3.15;;
29730;SDS011;16639;51.488;0.152;2023-08-30T06:31:34;10.82;;;2.85;;
29730;SDS011;16639;51.488;0.152;2023-08-30T06:34:02;10.07;;;3.60;;
29730;SDS011;16639;51.488;0.152;2023-08-30T06:36:29;7.05;;;3.33;;
29730;SDS011;16639;51.488;0.152;2023-08-30T06:38:57;12.48;;;2.90;;
29730;SDS011;16639;51.488;0.152;2023-08-30T06:41:24;20.15;;;6.88;;
29730;SDS011;16639;51.488;0.152;2023-08-30T06:43:51;10.15;;;3.50;;
29730;SDS011;16639;51.488;0.152;2023-08-30T06:46:19;13.77;;;4.38;;
29730;SDS011;16639;51.488;0.152;2023-08-30T06:48:46;12.90;;;3.08;;
29730;SDS011;16639;51.488;0.152;2023-08-30T06:51:19;9.05;;;3.50;;
29730;SDS011;16639;51.488;0.152;2023-08-30T06:53:46;11.90;;;4.05;;
29730;SDS011;16639;51.488;0.152;2023-08-30T06:56:14;12.57;;;3.70;;
29730;SDS011;16639;51.488;0.152;2023-08-30T06:58:41;7.97;;;2.88;;
29730;SDS011;16639;51.488;0.152;2023-08-30T07:01:08;13.60;;;3.20;;
29730;SDS011;16639;51.488;0.152;2023-08-30T07:03:36;9.95;;;3.20;;
29730;SDS011;16639;51.488;0.152;2023-08-30T07:06:03;11.60;;;2.92;;
29730;SDS011;16639;51.488;0.152;2023-08-30T07:08:31;12.05;;;3.03;;
29730;SDS011;16639;51.488;0.152;2023-08-30T07:10:59;16.63;;;4.00;;
29730;SDS011;16639;51.488;0.152;2023-08-30T07:13:27;10.02;;;2.60;;
29730;SDS011;16639;51.488;0.152;2023-08-30T07:15:54;10.07;;;3.05;;
29730;SDS011;16639;51.488;0.152;2023-08-30T07:18:21;11.43;;;2.60;;
29730;SDS011;16639;51.488;0.152;2023-08-30T07:20:49;11.40;;;3.05;;
29730;SDS011;16639;51.488;0.152;2023-08-30T07:23:16;13.57;;;4.88;;
29730;SDS011;16639;51.488;0.152;2023-08-30T07:25:44;11.07;;;4.70;;
29730;SDS011;16639;51.488;0.152;2023-08-30T07:28:11;14.05;;;3.00;;
29730;SDS011;16639;51.488;0.152;2023-08-30T07:30:38;8.32;;;2.90;;
29730;SDS011;16639;51.488;0.152;2023-08-30T07:33:06;13.70;;;3.42;;
29730;SDS011;16639;51.488;0.152;2023-08-30T07:35:33;8.55;;;2.83;;
29730;SDS011;16639;51.488;0.152;2023-08-30T07:38:01;10.82;;;3.20;;
29730;SDS011;16639;51.488;0.152;2023-08-30T07:40:29;9.90;;;2.95;;
29730;SDS011;16639;51.488;0.152;2023-08-30T07:42:57;10.02;;;3.38;;
29730;SDS011;16639;51.488;0.152;2023-08-30T07:45:26;9.77;;;3.28;;
29730;SDS011;16639;51.488;0.152;2023-08-30T07:47:53;9.77;;;2.75;;
29730;SDS011;16639;51.488;0.152;2023-08-30T07:50:21;10.65;;;3.25;;
29730;SDS011;16639;51.488;0.152;2023-08-30T07:52:50;12.65;;;3.75;;
29730;SDS011;16639;51.488;0.152;2023-08-30T07:55:17;12.85;;;3.17;;
29730;SDS011;16639;51.488;0.152;2023-08-30T07:57:46;11.25;;;3.00;;
29730;SDS011;16639;51.488;0.152;2023-08-30T08:00:13;8.90;;;2.88;;
29730;SDS011;16639;51.488;0.152;2023-08-30T08:02:41;11.57;;;3.20;;
29730;SDS011;16639;51.488;0.152;2023-08-30T08:05:08;8.77;;;2.88;;
29730;SDS011;16639;51.488;0.152;2023-08-30T08:07:38;4.95;;;2.60;;
29730;SDS011;16639;51.488;0.152;2023-08-30T08:10:06;8.40;;;3.05;;
29730;SDS011;16639;51.488;0.152;2023-08-30T08:12:34;9.75;;;3.08;;
29730;SDS011;16639;51.488;0.152;2023-08-30T08:15:03;14.43;;;3.13;;
29730;SDS011;16639;51.488;0.152;2023-08-30T08:17:30;9.20;;;2.88;;
29730;SDS011;16639;51.488;0.152;2023-08-30T08:19:58;13.80;;;3.22;;
29730;SDS011;16639;51.488;0.152;2023-08-30T08:22:25;14.85;;;3.42;;
29730;SDS011;16639;51.488;0.152;2023-08-30T08:24:53;7.90;;;2.67;;
29730;SDS011;16639;51.488;0.152;2023-08-30T08:27:26;13.63;;;3.30;;
29730;SDS011;16639;51.488;0.152;2023-08-30T08:29:53;6.93;;;2.97;;
29730;SDS011;16639;51.488;0.152;2023-08-30T08:32:20;11.45;;;3.33;;
29730;SDS011;16639;51.488;0.152;2023-08-30T08:34:51;10.02;;;3.05;;
29730;SDS011;16639;51.488;0.152;2023-08-30T08:37:18;12.77;;;3.42;;
29730;SDS011;16639;51.488;0.152;2023-08-30T08:39:48;5.88;;;2.50;;
29730;SDS011;16639;51.488;0.152;2023-08-30T08:42:20;12.82;;;3.20;;
29730;SDS011;16639;51.488;0.152;2023-08-30T08:44:50;12.63;;;3.35;;
29730;SDS011;16639;51.488;0.152;2023-08-30T08:47:19;8.52;;;3.40;;
29730;SDS011;16639;51.488;0.152;2023-08-30T08:49:48;8.55;;;3.22;;
29730;SDS011;16639;51.488;0.152;2023-08-30T08:52:17;10.07;;;2.70;;
29730;SDS011;16639;51.488;0.152;2023-08-30T08:54:57;12.30;;;3.38;;
29730;SDS011;16639;51.488;0.152;2023-08-30T08:57:27;12.38;;;3.35;;
29730;SDS011;16639;51.488;0.152;2023-08-30T08:59:58;8.48;;;3.00;;
29730;SDS011;16639;51.488;0.152;2023-08-30T09:02:26;15.70;;;2.53;;
29730;SDS011;16639;51.488;0.152;2023-08-30T09:04:56;8.77;;;3.45;;
29730;SDS011;16639;51.488;0.152;2023-08-30T09:07:27;7.15;;;2.45;;
29730;SDS011;16639;51.488;0.152;2023-08-30T09:09:55;11.63;;;2.92;;
29730;SDS011;16639;51.488;0.152;2023-08-30T09:12:22;16.10;;;2.33;;
29730;SDS011;16639;51.488;0.152;2023-08-30T09:14:54;10.15;;;3.42;;
29730;SDS011;16639;51.488;0.152;2023-08-30T09:17:22;8.90;;;2.97;;
29730;SDS011;16639;51.488;0.152;2023-08-30T09:19:50;8.80;;;2.83;;
29730;SDS011;16639;51.488;0.152;2023-08-30T09:22:17;9.85;;;2.72;;
29730;SDS011;16639;51.488;0.152;2023-08-30T09:24:45;5.93;;;2.25;;
29730;SDS011;16639;51.488;0.152;2023-08-30T09:27:12;12.65;;;3.00;;
29730;SDS011;16639;51.488;0.152;2023-08-30T09:29:42;10.25;;;2.30;;
29730;SDS011;16639;51.488;0.152;2023-08-30T09:32:12;11.93;;;2.65;;
29730;SDS011;16639;51.488;0.152;2023-08-30T09:34:45;8.52;;;2.67;;
29730;SDS011;16639;51.488;0.152;2023-08-30T09:37:23;8.52;;;2.88;;
29730;SDS011;16639;51.488;0.152;2023-08-30T09:39:51;7.63;;;2.17;;
29730;SDS011;16639;51.488;0.152;2023-08-30T09:42:19;8.27;;;2.85;;
29730;SDS011;16639;51.488;0.152;2023-08-30T09:44:46;14.23;;;2.45;;
29730;SDS011;16639;51.488;0.152;2023-08-30T09:47:15;11.95;;;2.80;;
29730;SDS011;16639;51.488;0.152;2023-08-30T09:49:43;7.65;;;2.33;;
29730;SDS011;16639;51.488;0.152;2023-08-30T09:52:14;12.93;;;2.92;;
29730;SDS011;16639;51.488;0.152;2023-08-30T09:54:42;10.93;;;2.90;;
29730;SDS011;16639;51.488;0.152;2023-08-30T09:57:10;15.30;;;2.88;;
29730;SDS011;16639;51.488;0.152;2023-08-30T09:59:38;9.55;;;2.28;;
29730;SDS011;16639;51.488;0.152;2023-08-30T10:02:07;7.90;;;2.47;;
29730;SDS011;16639;51.488;0.152;2023-08-30T10:04:37;10.35;;;2.67;;
29730;SDS011;16639;51.488;0.152;2023-08-30T10:07:08;9.15;;;3.03;;
29730;SDS011;16639;51.488;0.152;2023-08-30T10:09:40;10.68;;;2.97;;
29730;SDS011;16639;51.488;0.152;2023-08-30T10:12:28;9.93;;;2.80;;
29730;SDS011;16639;51.488;0.152;2023-08-30T10:14:57;12.07;;;2.67;;
29730;SDS011;16639;51.488;0.152;2023-08-30T10:17:27;4.85;;;2.38;;
29730;SDS011;16639;51.488;0.152;2023-08-30T10:19:58;8.63;;;2.13;;
29730;SDS011;16639;51.488;0.152;2023-08-30T10:22:30;12.82;;;2.53;;
29730;SDS011;16639;51.488;0.152;2023-08-30T10:25:13;8.98;;;2.63;;
29730;SDS011;16639;51.488;0.152;2023-08-30T10:27:46;3.63;;;1.85;;
29730;SDS011;16639;51.488;0.152;2023-08-30T10:30:15;7.63;;;1.83;;
29730;SDS011;16639;51.488;0.152;2023-08-30T10:32:44;7.13;;;1.83;;
29730;SDS011;16639;51.488;0.152;2023-08-30T10:35:13;6.45;;;1.55;;
29730;SDS011;16639;51.488;0.152;2023-08-30T10:37:53;8.00;;;2.08;;
29730;SDS011;16639;51.488;0.152;2023-08-30T10:40:22;6.95;;;1.90;;
29730;SDS011;16639;51.488;0.152;2023-08-30T10:42:59;3.55;;;1.75;;
29730;SDS011;16639;51.488;0.152;2023-08-30T10:45:30;3.08;;;1.30;;
29730;SDS011;16639;51.488;0.152;2023-08-30T10:47:58;8.38;;;2.58;;
29730;SDS011;16639;51.488;0.152;2023-08-30T10:50:30;8.05;;;1.80;;
29730;SDS011;16639;51.488;0.152;2023-08-30T10:52:59;4.80;;;1.42;;
29730;SDS011;16639;51.488;0.152;2023-08-30T10:55:26;8.10;;;1.70;;
29730;SDS011;16639;51.488;0.152;2023-08-30T10:57:58;6.95;;;1.83;;
29730;SDS011;16639;51.488;0.152;2023-08-30T11:00:30;6.68;;;1.38;;
29730;SDS011;16639;51.488;0.152;2023-08-30T11:02:58;6.13;;;1.60;;
29730;SDS011;16639;51.488;0.152;2023-08-30T11:05:26;3.50;;;2.00;;
29730;SDS011;16639;51.488;0.152;2023-08-30T11:07:55;5.80;;;1.77;;
29730;SDS011;16639;51.488;0.152;2023-08-30T11:10:22;9.48;;;1.85;;
29730;SDS011;16639;51.488;0.152;2023-08-30T11:12:50;3.22;;;1.70;;
29730;SDS011;16639;51.488;0.152;2023-08-30T11:15:18;8.13;;;2.25;;
29730;SDS011;16639;51.488;0.152;2023-08-30T11:17:47;6.35;;;1.67;;
29730;SDS011;16639;51.488;0.152;2023-08-30T11:20:15;5.63;;;1.60;;
29730;SDS011;16639;51.488;0.152;2023-08-30T11:22:48;4.70;;;1.45;;
29730;SDS011;16639;51.488;0.152;2023-08-30T11:25:16;3.50;;;1.30;;
29730;SDS011;16639;51.488;0.152;2023-08-30T11:27:44;3.67;;;1.42;;
29730;SDS011;16639;51.488;0.152;2023-08-30T11:30:12;5.47;;;1.50;;
29730;SDS011;16639;51.488;0.152;2023-08-30T11:32:40;5.85;;;1.30;;
29730;SDS011;16639;51.488;0.152;2023-08-30T11:35:11;4.47;;;1.60;;
29730;SDS011;16639;51.488;0.152;2023-08-30T11:37:39;5.57;;;1.70;;
29730;SDS011;16639;51.488;0.152;2023-08-30T11:40:08;5.13;;;1.63;;
29730;SDS011;16639;51.488;0.152;2023-08-30T11:42:38;4.57;;;1.60;;
29730;SDS011;16639;51.488;0.152;2023-08-30T11:45:08;8.10;;;1.45;;
29730;SDS011;16639;51.488;0.152;2023-08-30T11:47:36;9.48;;;1.95;;
29730;SDS011;16639;51.488;0.152;2023-08-30T11:50:03;6.50;;;1.95;;
29730;SDS011;16639;51.488;0.152;2023-08-30T11:52:33;6.78;;;3.00;;
29730;SDS011;16639;51.488;0.152;2023-08-30T11:55:01;5.35;;;2.72;;
29730;SDS011;16639;51.488;0.152;2023-08-30T11:57:32;5.43;;;1.48;;
29730;SDS011;16639;51.488;0.152;2023-08-30T12:00:10;4.25;;;1.48;;
29730;SDS011;16639;51.488;0.152;2023-08-30T12:02:41;4.88;;;1.45;;
29730;SDS011;16639;51.488;0.152;2023-08-30T12:05:12;5.65;;;1.88;;
29730;SDS011;16639;51.488;0.152;2023-08-30T12:07:40;6.55;;;1.98;;
29730;SDS011;16639;51.488;0.152;2023-08-30T12:10:09;6.80;;;1.88;;
29730;SDS011;16639;51.488;0.152;2023-08-30T12:12:38;6.35;;;1.95;;
29730;SDS011;16639;51.488;0.152;2023-08-30T12:15:11;12.55;;;2.17;;
29730;SDS011;16639;51.488;0.152;2023-08-30T12:17:40;6.30;;;2.38;;
29730;SDS011;16639;51.488;0.152;2023-08-30T12:20:14;4.72;;;1.27;;
29730;SDS011;16639;51.488;0.152;2023-08-30T12:22:43;4.78;;;1.48;;
29730;SDS011;16639;51.488;0.152;2023-08-30T12:25:20;2.65;;;1.25;;
29730;SDS011;16639;51.488;0.152;2023-08-30T12:27:50;4.60;;;1.35;;
29730;SDS011;16639;51.488;0.152;2023-08-30T12:30:17;2.05;;;1.02;;
29730;SDS011;16639;51.488;0.152;2023-08-30T12:32:45;3.88;;;0.98;;
29730;SDS011;16639;51.488;0.152;2023-08-30T12:35:14;3.63;;;1.05;;
29730;SDS011;16639;51.488;0.152;2023-08-30T12:37:42;3.88;;;1.00;;
29730;SDS011;16639;51.488;0.152;2023-08-30T12:40:13;1.92;;;1.00;;
29730;SDS011;16639;51.488;0.152;2023-08-30T12:42:40;5.95;;;0.98;;
29730;SDS011;16639;51.488;0.152;2023-08-30T12:45:08;5.05;;;1.20;;
29730;SDS011;16639;51.488;0.152;2023-08-30T12:47:37;6.50;;;1.35;;
29730;SDS011;16639;51.488;0.152;2023-08-30T12:50:04;5.95;;;1.48;;
29730;SDS011;16639;51.488;0.152;2023-08-30T12:52:33;1.95;;;0.73;;
29730;SDS011;16639;51.488;0.152;2023-08-30T12:55:04;1.50;;;0.80;;
29730;SDS011;16639;51.488;0.152;2023-08-30T12:57:31;2.67;;;0.77;;
29730;SDS011;16639;51.488;0.152;2023-08-30T12:59:59;1.45;;;0.90;;
29730;SDS011;16639;51.488;0.152;2023-08-30T13:02:28;4.47;;;1.10;;
29730;SDS011;16639;51.488;0.152;2023-08-30T13:04:55;2.38;;;1.10;;
29730;SDS011;16639;51.488;0.152;2023-08-30T13:07:23;4.70;;;1.10;;
29730;SDS011;16639;51.488;0.152;2023-08-30T13:09:51;1.48;;;1.10;;
29730;SDS011;16639;51.488;0.152;2023-08-30T13:12:18;2.20;;;1.25;;
29730;SDS011;16639;51.488;0.152;2023-08-30T13:14:46;2.53;;;0.90;;
29730;SDS011;16639;51.488;0.152;2023-08-30T13:17:13;7.95;;;1.02;;
29730;SDS011;16639;51.488;0.152;2023-08-30T13:19:41;4.75;;;1.10;;
29730;SDS011;16639;51.488;0.152;2023-08-30T13:22:09;3.42;;;1.08;;
29730;SDS011;16639;51.488;0.152;2023-08-30T13:24:36;2.33;;;0.88;;
29730;SDS011;16639;51.488;0.152;2023-08-30T13:27:04;2.78;;;1.52;;
29730;SDS011;16639;51.488;0.152;2023-08-30T13:29:33;7.00;;;1.63;;
29730;SDS011;16639;51.488;0.152;2023-08-30T13:32:00;7.18;;;1.40;;
29730;SDS011;16639;51.488;0.152;2023-08-30T13:34:27;4.93;;;1.50;;
29730;SDS011;16639;51.488;0.152;2023-08-30T13:36:55;2.10;;;1.00;;
29730;SDS011;16639;51.488;0.152;2023-08-30T13:39:22;3.00;;;1.23;;
29730;SDS011;16639;51.488;0.152;2023-08-30T13:41:49;4.40;;;1.20;;
29730;SDS011;16639;51.488;0.152;2023-08-30T13:44:17;3.72;;;1.25;;
29730;SDS011;16639;51.488;0.152;2023-08-30T13:46:44;4.43;;;1.38;;
29730;SDS011;16639;51.488;0.152;2023-08-30T13:49:15;9.40;;;1.63;;
29730;SDS011;16639;51.488;0.152;2023-08-30T13:51:43;2.67;;;1.30;;
29730;SDS011;16639;51.488;0.152;2023-08-30T13:54:11;4.57;;;1.35;;
29730;SDS011;16639;51.488;0.152;2023-08-30T13:56:39;4.72;;;1.48;;
29730;SDS011;16639;51.488;0.152;2023-08-30T13:59:07;5.00;;;1.55;;
29730;SDS011;16639;51.488;0.152;2023-08-30T14:01:34;5.53;;;1.67;;
29730;SDS011;16639;51.488;0.152;2023-08-30T14:04:02;3.92;;;1.42;;
29730;SDS011;16639;51.488;0.152;2023-08-30T14:06:33;6.25;;;1.45;;
29730;SDS011;16639;51.488;0.152;2023-08-30T14:09:01;7.20;;;1.48;;
29730;SDS011;16639;51.488;0.152;2023-08-30T14:11:31;2.05;;;1.20;;
29730;SDS011;16639;51.488;0.152;2023-08-30T14:13:59;4.10;;;1.40;;
29730;SDS011;16639;51.488;0.152;2023-08-30T14:16:28;3.67;;;1.55;;
29730;SDS011;16639;51.488;0.152;2023-08-30T14:18:56;6.32;;;1.70;;
29730;SDS011;16639;51.488;0.152;2023-08-30T14:21:26;3.30;;;1.40;;
29730;SDS011;16639;51.488;0.152;2023-08-30T14:23:54;3.78;;;1.42;;
29730;SDS011;16639;51.488;0.152;2023-08-30T14:26:21;3.80;;;1.60;;
29730;SDS011;16639;51.488;0.152;2023-08-30T14:28:49;5.97;;;1.50;;
29730;SDS011;16639;51.488;0.152;2023-08-30T14:31:17;2.63;;;1.13;;
29730;SDS011;16639;51.488;0.152;2023-08-30T14:33:45;3.42;;;1.00;;
29730;SDS011;16639;51.488;0.152;2023-08-30T14:36:15;3.22;;;1.48;;
29730;SDS011;16639;51.488;0.152;2023-08-30T14:38:43;2.45;;;1.00;;
29730;SDS011;16639;51.488;0.152;2023-08-30T14:41:10;2.92;;;1.10;;
29730;SDS011;16639;51.488;0.152;2023-08-30T14:43:39;3.05;;;1.20;;
29730;SDS011;16639;51.488;0.152;2023-08-30T14:46:07;4.18;;;1.48;;
29730;SDS011;16639;51.488;0.152;2023-08-30T14:48:41;3.28;;;1.00;;
29730;SDS011;16639;51.488;0.152;2023-08-30T14:51:08;3.70;;;1.10;;
29730;SDS011;16639;51.488;0.152;2023-08-30T14:53:36;4.65;;;1.75;;
29730;SDS011;16639;51.488;0.152;2023-08-30T14:56:03;3.97;;;1.88;;
29730;SDS011;16639;51.488;0.152;2023-08-30T14:58:34;4.88;;;1.38;;